sensor_id;sensor_type;location;lat;lon;timestamp;P1;durP1;ratioP1;P2;durP2;ratioP2
62580;SDS011;48640;48.770;9.148;2023-06-19T00:01:04;6.38;;;5.55;;
62580;SDS011;48640;48.770;9.148;2023-06-19T00:03:31;9.13;;;4.80;;
62580;SDS011;48640;48.770;9.148;2023-06-19T00:05:57;6.00;;;5.07;;
62580;SDS011;48640;48.770;9.148;2023-06-19T00:08:24;7.88;;;4.97;;
62580;SDS011;48640;48.770;9.148;2023-06-19T00:10:51;8.10;;;4.88;;
62580;SDS011;48640;48.770;9.148;2023-06-19T00:13:19;5.53;;;4.57;;
62580;SDS011;48640;48.770;9.148;2023-06-19T00:15:46;6.28;;;4.85;;
62580;SDS011;48640;48.770;9.148;2023-06-19T00:18:13;7.20;;;4.63;;
62580;SDS011;48640;48.770;9.148;2023-06-19T00:20:41;5.65;;;4.47;;
62580;SDS011;48640;48.770;9.148;2023-06-19T00:23:11;6.38;;;4.63;;
62580;SDS011;48640;48.770;9.148;2023-06-19T00:25:39;6.35;;;3.92;;
62580;SDS011;48640;48.770;9.148;2023-06-19T00:28:06;5.40;;;4.55;;
62580;SDS011;48640;48.770;9.148;2023-06-19T00:30:37;6.65;;;4.40;;
62580;SDS011;48640;48.770;9.148;2023-06-19T00:33:04;5.82;;;3.75;;
62580;SDS011;48640;48.770;9.148;2023-06-19T00:35:31;5.43;;;4.03;;
62580;SDS011;48640;48.770;9.148;2023-06-19T00:37:58;5.47;;;4.68;;
62580;SDS011;48640;48.770;9.148;2023-06-19T00:40:26;5.20;;;4.10;;
62580;SDS011;48640;48.770;9.148;2023-06-19T00:42:54;5.55;;;4.38;;
62580;SDS011;48640;48.770;9.148;2023-06-19T00:45:21;4.90;;;4.25;;
62580;SDS011;48640;48.770;9.148;2023-06-19T00:47:51;6.65;;;4.05;;
62580;SDS011;48640;48.770;9.148;2023-06-19T00:50:19;5.53;;;4.05;;
62580;SDS011;48640;48.770;9.148;2023-06-19T00:52:47;5.38;;;3.38;;
62580;SDS011;48640;48.770;9.148;2023-06-19T00:55:14;5.43;;;4.20;;
62580;SDS011;48640;48.770;9.148;2023-06-19T00:57:41;5.47;;;4.30;;
62580;SDS011;48640;48.770;9.148;2023-06-19T01:00:09;8.55;;;5.03;;
62580;SDS011;48640;48.770;9.148;2023-06-19T01:02:38;4.93;;;3.90;;
62580;SDS011;48640;48.770;9.148;2023-06-19T01:05:06;7.10;;;4.30;;
62580;SDS011;48640;48.770;9.148;2023-06-19T01:07:38;6.07;;;4.25;;
62580;SDS011;48640;48.770;9.148;2023-06-19T01:10:11;6.40;;;4.50;;
62580;SDS011;48640;48.770;9.148;2023-06-19T01:12:42;5.03;;;4.05;;
62580;SDS011;48640;48.770;9.148;2023-06-19T01:15:17;6.20;;;3.95;;
62580;SDS011;48640;48.770;9.148;2023-06-19T01:17:44;5.65;;;4.30;;
62580;SDS011;48640;48.770;9.148;2023-06-19T01:20:13;5.38;;;4.25;;
62580;SDS011;48640;48.770;9.148;2023-06-19T01:22:42;5.45;;;4.38;;
62580;SDS011;48640;48.770;9.148;2023-06-19T01:25:09;5.63;;;4.00;;
62580;SDS011;48640;48.770;9.148;2023-06-19T01:27:38;4.82;;;3.83;;
62580;SDS011;48640;48.770;9.148;2023-06-19T01:30:05;4.75;;;3.67;;
62580;SDS011;48640;48.770;9.148;2023-06-19T01:32:34;5.65;;;4.38;;
62580;SDS011;48640;48.770;9.148;2023-06-19T01:35:11;4.60;;;3.90;;
62580;SDS011;48640;48.770;9.148;2023-06-19T01:37:40;5.70;;;4.20;;
62580;SDS011;48640;48.770;9.148;2023-06-19T01:40:10;6.75;;;4.43;;
62580;SDS011;48640;48.770;9.148;2023-06-19T01:42:38;5.17;;;3.93;;
62580;SDS011;48640;48.770;9.148;2023-06-19T01:45:06;6.45;;;4.38;;
62580;SDS011;48640;48.770;9.148;2023-06-19T01:47:34;7.30;;;4.30;;
62580;SDS011;48640;48.770;9.148;2023-06-19T01:50:01;5.97;;;3.83;;
62580;SDS011;48640;48.770;9.148;2023-06-19T01:52:28;4.93;;;3.63;;
62580;SDS011;48640;48.770;9.148;2023-06-19T01:54:56;5.50;;;3.83;;
62580;SDS011;48640;48.770;9.148;2023-06-19T01:57:23;6.03;;;3.95;;
62580;SDS011;48640;48.770;9.148;2023-06-19T01:59:49;4.43;;;3.38;;
62580;SDS011;48640;48.770;9.148;2023-06-19T02:02:16;4.95;;;3.50;;
62580;SDS011;48640;48.770;9.148;2023-06-19T02:04:43;5.47;;;3.83;;
62580;SDS011;48640;48.770;9.148;2023-06-19T02:07:10;5.88;;;3.53;;
62580;SDS011;48640;48.770;9.148;2023-06-19T02:09:37;5.18;;;3.60;;
62580;SDS011;48640;48.770;9.148;2023-06-19T02:12:06;4.93;;;3.30;;
62580;SDS011;48640;48.770;9.148;2023-06-19T02:14:34;5.75;;;3.33;;
62580;SDS011;48640;48.770;9.148;2023-06-19T02:17:00;7.40;;;3.72;;
62580;SDS011;48640;48.770;9.148;2023-06-19T02:19:27;5.55;;;3.47;;
62580;SDS011;48640;48.770;9.148;2023-06-19T02:21:54;5.00;;;3.53;;
62580;SDS011;48640;48.770;9.148;2023-06-19T02:24:21;5.25;;;3.35;;
62580;SDS011;48640;48.770;9.148;2023-06-19T02:26:47;5.88;;;3.22;;
62580;SDS011;48640;48.770;9.148;2023-06-19T02:29:15;4.05;;;3.50;;
62580;SDS011;48640;48.770;9.148;2023-06-19T02:31:42;4.13;;;3.22;;
62580;SDS011;48640;48.770;9.148;2023-06-19T02:34:10;4.03;;;3.20;;
62580;SDS011;48640;48.770;9.148;2023-06-19T02:36:37;5.70;;;3.30;;
62580;SDS011;48640;48.770;9.148;2023-06-19T02:39:04;4.93;;;3.92;;
62580;SDS011;48640;48.770;9.148;2023-06-19T02:41:31;5.45;;;3.30;;
62580;SDS011;48640;48.770;9.148;2023-06-19T02:43:58;6.68;;;3.40;;
62580;SDS011;48640;48.770;9.148;2023-06-19T02:46:26;4.95;;;3.50;;
62580;SDS011;48640;48.770;9.148;2023-06-19T02:48:53;4.35;;;3.28;;
62580;SDS011;48640;48.770;9.148;2023-06-19T02:51:19;3.67;;;3.20;;
62580;SDS011;48640;48.770;9.148;2023-06-19T02:53:46;4.53;;;3.22;;
62580;SDS011;48640;48.770;9.148;2023-06-19T02:56:13;4.97;;;3.67;;
62580;SDS011;48640;48.770;9.148;2023-06-19T02:58:40;5.43;;;3.42;;
62580;SDS011;48640;48.770;9.148;2023-06-19T03:01:06;3.97;;;3.20;;
62580;SDS011;48640;48.770;9.148;2023-06-19T03:03:35;6.03;;;3.13;;
62580;SDS011;48640;48.770;9.148;2023-06-19T03:06:03;4.40;;;3.20;;
62580;SDS011;48640;48.770;9.148;2023-06-19T03:08:30;4.30;;;3.20;;
62580;SDS011;48640;48.770;9.148;2023-06-19T03:10:57;3.95;;;3.00;;
62580;SDS011;48640;48.770;9.148;2023-06-19T03:13:24;5.93;;;3.15;;
62580;SDS011;48640;48.770;9.148;2023-06-19T03:15:51;4.13;;;3.33;;
62580;SDS011;48640;48.770;9.148;2023-06-19T03:18:18;4.10;;;3.05;;
62580;SDS011;48640;48.770;9.148;2023-06-19T03:20:46;3.47;;;2.70;;
62580;SDS011;48640;48.770;9.148;2023-06-19T03:23:13;5.82;;;3.25;;
62580;SDS011;48640;48.770;9.148;2023-06-19T03:25:40;4.38;;;3.15;;
62580;SDS011;48640;48.770;9.148;2023-06-19T03:28:08;4.88;;;3.05;;
62580;SDS011;48640;48.770;9.148;2023-06-19T03:30:34;4.88;;;2.88;;
62580;SDS011;48640;48.770;9.148;2023-06-19T03:33:01;3.67;;;2.63;;
62580;SDS011;48640;48.770;9.148;2023-06-19T03:35:28;4.00;;;2.58;;
62580;SDS011;48640;48.770;9.148;2023-06-19T03:37:56;4.03;;;2.88;;
62580;SDS011;48640;48.770;9.148;2023-06-19T03:40:23;5.30;;;2.38;;
62580;SDS011;48640;48.770;9.148;2023-06-19T03:42:49;3.97;;;2.50;;
62580;SDS011;48640;48.770;9.148;2023-06-19T03:45:16;4.22;;;2.30;;
62580;SDS011;48640;48.770;9.148;2023-06-19T03:47:43;3.00;;;2.20;;
62580;SDS011;48640;48.770;9.148;2023-06-19T03:50:09;3.58;;;2.40;;
62580;SDS011;48640;48.770;9.148;2023-06-19T03:52:36;3.50;;;2.45;;
62580;SDS011;48640;48.770;9.148;2023-06-19T03:55:05;4.03;;;2.75;;
62580;SDS011;48640;48.770;9.148;2023-06-19T03:57:32;3.75;;;2.63;;
62580;SDS011;48640;48.770;9.148;2023-06-19T03:59:59;3.83;;;2.60;;
62580;SDS011;48640;48.770;9.148;2023-06-19T04:02:26;3.40;;;2.20;;
62580;SDS011;48640;48.770;9.148;2023-06-19T04:04:52;5.05;;;2.10;;
62580;SDS011;48640;48.770;9.148;2023-06-19T04:07:19;3.83;;;2.70;;
62580;SDS011;48640;48.770;9.148;2023-06-19T04:09:46;3.33;;;2.40;;
62580;SDS011;48640;48.770;9.148;2023-06-19T04:12:14;5.22;;;2.65;;
62580;SDS011;48640;48.770;9.148;2023-06-19T04:14:41;4.60;;;2.65;;
62580;SDS011;48640;48.770;9.148;2023-06-19T04:17:08;4.05;;;2.47;;
62580;SDS011;48640;48.770;9.148;2023-06-19T04:19:34;3.85;;;2.67;;
62580;SDS011;48640;48.770;9.148;2023-06-19T04:22:01;3.58;;;2.33;;
62580;SDS011;48640;48.770;9.148;2023-06-19T04:24:28;5.25;;;2.35;;
62580;SDS011;48640;48.770;9.148;2023-06-19T04:26:55;3.38;;;2.47;;
62580;SDS011;48640;48.770;9.148;2023-06-19T04:29:23;3.80;;;2.40;;
62580;SDS011;48640;48.770;9.148;2023-06-19T04:31:49;3.45;;;2.05;;
62580;SDS011;48640;48.770;9.148;2023-06-19T04:34:16;4.15;;;2.63;;
62580;SDS011;48640;48.770;9.148;2023-06-19T04:36:45;3.35;;;2.35;;
62580;SDS011;48640;48.770;9.148;2023-06-19T04:39:12;3.15;;;2.22;;
62580;SDS011;48640;48.770;9.148;2023-06-19T04:41:40;4.05;;;2.55;;
62580;SDS011;48640;48.770;9.148;2023-06-19T04:44:08;3.58;;;2.63;;
62580;SDS011;48640;48.770;9.148;2023-06-19T04:46:38;3.63;;;2.63;;
62580;SDS011;48640;48.770;9.148;2023-06-19T04:49:04;3.50;;;2.33;;
62580;SDS011;48640;48.770;9.148;2023-06-19T04:51:31;3.53;;;2.25;;
62580;SDS011;48640;48.770;9.148;2023-06-19T04:53:58;3.80;;;2.22;;
62580;SDS011;48640;48.770;9.148;2023-06-19T04:56:25;3.72;;;2.35;;
62580;SDS011;48640;48.770;9.148;2023-06-19T04:58:52;3.85;;;2.33;;
62580;SDS011;48640;48.770;9.148;2023-06-19T05:01:21;3.65;;;2.20;;
62580;SDS011;48640;48.770;9.148;2023-06-19T05:03:55;3.25;;;2.15;;
62580;SDS011;48640;48.770;9.148;2023-06-19T05:06:22;3.72;;;2.33;;
62580;SDS011;48640;48.770;9.148;2023-06-19T05:08:49;3.25;;;1.80;;
62580;SDS011;48640;48.770;9.148;2023-06-19T05:11:16;4.63;;;2.10;;
62580;SDS011;48640;48.770;9.148;2023-06-19T05:13:43;3.30;;;2.38;;
62580;SDS011;48640;48.770;9.148;2023-06-19T05:16:09;2.90;;;2.35;;
62580;SDS011;48640;48.770;9.148;2023-06-19T05:18:40;3.10;;;1.95;;
62580;SDS011;48640;48.770;9.148;2023-06-19T05:21:08;3.83;;;2.15;;
62580;SDS011;48640;48.770;9.148;2023-06-19T05:23:35;3.60;;;2.40;;
62580;SDS011;48640;48.770;9.148;2023-06-19T05:26:03;2.60;;;1.80;;
62580;SDS011;48640;48.770;9.148;2023-06-19T05:28:30;3.03;;;1.95;;
62580;SDS011;48640;48.770;9.148;2023-06-19T05:30:56;2.63;;;2.00;;
62580;SDS011;48640;48.770;9.148;2023-06-19T05:33:23;3.45;;;2.38;;
62580;SDS011;48640;48.770;9.148;2023-06-19T05:35:50;3.72;;;2.33;;
62580;SDS011;48640;48.770;9.148;2023-06-19T05:38:20;3.35;;;2.40;;
62580;SDS011;48640;48.770;9.148;2023-06-19T05:43:16;5.22;;;2.80;;
62580;SDS011;48640;48.770;9.148;2023-06-19T05:45:43;4.63;;;2.47;;
62580;SDS011;48640;48.770;9.148;2023-06-19T05:48:10;4.20;;;2.40;;
62580;SDS011;48640;48.770;9.148;2023-06-19T05:50:37;3.65;;;2.22;;
62580;SDS011;48640;48.770;9.148;2023-06-19T05:53:04;3.10;;;2.25;;
62580;SDS011;48640;48.770;9.148;2023-06-19T05:55:32;3.05;;;1.90;;
62580;SDS011;48640;48.770;9.148;2023-06-19T05:57:59;4.18;;;2.35;;
62580;SDS011;48640;48.770;9.148;2023-06-19T06:00:27;3.00;;;1.90;;
62580;SDS011;48640;48.770;9.148;2023-06-19T06:02:55;3.72;;;2.25;;
62580;SDS011;48640;48.770;9.148;2023-06-19T06:07:51;3.20;;;2.13;;
62580;SDS011;48640;48.770;9.148;2023-06-19T06:10:18;3.03;;;2.08;;
62580;SDS011;48640;48.770;9.148;2023-06-19T06:12:47;2.88;;;2.22;;
62580;SDS011;48640;48.770;9.148;2023-06-19T06:15:14;3.22;;;2.30;;
62580;SDS011;48640;48.770;9.148;2023-06-19T06:17:41;3.22;;;2.30;;
62580;SDS011;48640;48.770;9.148;2023-06-19T06:20:08;3.65;;;2.30;;
62580;SDS011;48640;48.770;9.148;2023-06-19T06:22:37;3.28;;;2.15;;
62580;SDS011;48640;48.770;9.148;2023-06-19T06:25:04;4.30;;;2.28;;
62580;SDS011;48640;48.770;9.148;2023-06-19T06:27:31;3.78;;;2.22;;
62580;SDS011;48640;48.770;9.148;2023-06-19T06:30:00;3.15;;;2.22;;
62580;SDS011;48640;48.770;9.148;2023-06-19T06:32:26;3.20;;;2.10;;
62580;SDS011;48640;48.770;9.148;2023-06-19T06:34:54;3.13;;;2.20;;
62580;SDS011;48640;48.770;9.148;2023-06-19T06:37:20;5.32;;;2.05;;
62580;SDS011;48640;48.770;9.148;2023-06-19T06:39:48;2.97;;;1.75;;
62580;SDS011;48640;48.770;9.148;2023-06-19T06:42:15;3.60;;;2.13;;
62580;SDS011;48640;48.770;9.148;2023-06-19T06:44:42;3.25;;;1.90;;
62580;SDS011;48640;48.770;9.148;2023-06-19T06:47:10;2.78;;;1.75;;
62580;SDS011;48640;48.770;9.148;2023-06-19T06:49:37;2.90;;;1.70;;
62580;SDS011;48640;48.770;9.148;2023-06-19T06:52:04;2.85;;;1.92;;
62580;SDS011;48640;48.770;9.148;2023-06-19T06:54:31;2.38;;;1.60;;
62580;SDS011;48640;48.770;9.148;2023-06-19T06:56:58;2.80;;;1.63;;
62580;SDS011;48640;48.770;9.148;2023-06-19T06:59:25;2.63;;;1.77;;
62580;SDS011;48640;48.770;9.148;2023-06-19T07:01:53;3.03;;;1.80;;
62580;SDS011;48640;48.770;9.148;2023-06-19T07:04:21;2.45;;;1.80;;
62580;SDS011;48640;48.770;9.148;2023-06-19T07:06:48;3.58;;;1.60;;
62580;SDS011;48640;48.770;9.148;2023-06-19T07:09:15;3.13;;;2.35;;
62580;SDS011;48640;48.770;9.148;2023-06-19T07:11:42;4.38;;;1.95;;
62580;SDS011;48640;48.770;9.148;2023-06-19T07:14:09;2.97;;;2.08;;
62580;SDS011;48640;48.770;9.148;2023-06-19T07:16:36;3.42;;;2.00;;
62580;SDS011;48640;48.770;9.148;2023-06-19T07:19:03;2.50;;;1.73;;
62580;SDS011;48640;48.770;9.148;2023-06-19T07:21:31;3.40;;;1.70;;
62580;SDS011;48640;48.770;9.148;2023-06-19T07:23:58;4.65;;;1.52;;
62580;SDS011;48640;48.770;9.148;2023-06-19T07:26:25;2.20;;;1.65;;
62580;SDS011;48640;48.770;9.148;2023-06-19T07:28:52;2.92;;;1.80;;
62580;SDS011;48640;48.770;9.148;2023-06-19T07:31:19;2.67;;;1.63;;
62580;SDS011;48640;48.770;9.148;2023-06-19T07:33:45;2.60;;;1.40;;
62580;SDS011;48640;48.770;9.148;2023-06-19T07:36:12;2.70;;;1.70;;
62580;SDS011;48640;48.770;9.148;2023-06-19T07:38:42;3.38;;;2.00;;
62580;SDS011;48640;48.770;9.148;2023-06-19T07:41:09;3.28;;;1.40;;
62580;SDS011;48640;48.770;9.148;2023-06-19T07:43:36;3.92;;;1.50;;
62580;SDS011;48640;48.770;9.148;2023-06-19T07:46:03;2.65;;;1.70;;
62580;SDS011;48640;48.770;9.148;2023-06-19T07:48:30;2.78;;;1.60;;
62580;SDS011;48640;48.770;9.148;2023-06-19T07:50:57;2.35;;;1.48;;
62580;SDS011;48640;48.770;9.148;2023-06-19T07:53:24;3.05;;;1.75;;
62580;SDS011;48640;48.770;9.148;2023-06-19T07:55:52;2.20;;;1.50;;
62580;SDS011;48640;48.770;9.148;2023-06-19T07:58:19;2.80;;;1.60;;
62580;SDS011;48640;48.770;9.148;2023-06-19T08:00:45;2.10;;;1.50;;
62580;SDS011;48640;48.770;9.148;2023-06-19T08:03:12;2.30;;;1.50;;
62580;SDS011;48640;48.770;9.148;2023-06-19T08:05:39;2.20;;;1.60;;
62580;SDS011;48640;48.770;9.148;2023-06-19T08:08:05;2.88;;;1.98;;
62580;SDS011;48640;48.770;9.148;2023-06-19T08:10:32;2.80;;;2.10;;
62580;SDS011;48640;48.770;9.148;2023-06-19T08:13:00;2.55;;;1.77;;
62580;SDS011;48640;48.770;9.148;2023-06-19T08:15:27;2.40;;;1.73;;
62580;SDS011;48640;48.770;9.148;2023-06-19T08:17:54;3.00;;;1.98;;
62580;SDS011;48640;48.770;9.148;2023-06-19T08:20:21;3.53;;;1.65;;
62580;SDS011;48640;48.770;9.148;2023-06-19T08:22:48;5.30;;;2.08;;
62580;SDS011;48640;48.770;9.148;2023-06-19T08:25:15;3.00;;;2.00;;
62580;SDS011;48640;48.770;9.148;2023-06-19T08:27:41;2.65;;;1.75;;
62580;SDS011;48640;48.770;9.148;2023-06-19T08:30:11;3.23;;;2.03;;
62580;SDS011;48640;48.770;9.148;2023-06-19T08:32:38;2.20;;;1.50;;
62580;SDS011;48640;48.770;9.148;2023-06-19T08:35:05;3.75;;;2.00;;
62580;SDS011;48640;48.770;9.148;2023-06-19T08:37:32;2.80;;;2.10;;
62580;SDS011;48640;48.770;9.148;2023-06-19T08:39:59;4.63;;;1.92;;
62580;SDS011;48640;48.770;9.148;2023-06-19T08:42:29;3.05;;;1.90;;
62580;SDS011;48640;48.770;9.148;2023-06-19T08:44:55;2.97;;;2.10;;
62580;SDS011;48640;48.770;9.148;2023-06-19T08:47:24;2.35;;;1.60;;
62580;SDS011;48640;48.770;9.148;2023-06-19T08:49:55;3.60;;;2.50;;
62580;SDS011;48640;48.770;9.148;2023-06-19T08:52:22;3.17;;;1.90;;
62580;SDS011;48640;48.770;9.148;2023-06-19T08:54:48;3.03;;;2.13;;
62580;SDS011;48640;48.770;9.148;2023-06-19T08:57:16;5.53;;;2.00;;
62580;SDS011;48640;48.770;9.148;2023-06-19T08:59:47;3.03;;;1.92;;
62580;SDS011;48640;48.770;9.148;2023-06-19T09:02:15;2.67;;;1.60;;
62580;SDS011;48640;48.770;9.148;2023-06-19T09:04:43;2.65;;;1.67;;
62580;SDS011;48640;48.770;9.148;2023-06-19T09:07:11;1.92;;;1.50;;
62580;SDS011;48640;48.770;9.148;2023-06-19T09:09:43;2.72;;;1.88;;
62580;SDS011;48640;48.770;9.148;2023-06-19T09:12:12;2.40;;;1.73;;
62580;SDS011;48640;48.770;9.148;2023-06-19T09:14:40;2.40;;;1.90;;
62580;SDS011;48640;48.770;9.148;2023-06-19T09:17:07;3.45;;;2.03;;
62580;SDS011;48640;48.770;9.148;2023-06-19T09:19:37;2.40;;;1.58;;
62580;SDS011;48640;48.770;9.148;2023-06-19T09:22:07;3.60;;;1.90;;
62580;SDS011;48640;48.770;9.148;2023-06-19T09:24:36;2.08;;;1.50;;
62580;SDS011;48640;48.770;9.148;2023-06-19T09:27:07;3.10;;;2.17;;
62580;SDS011;48640;48.770;9.148;2023-06-19T09:29:36;2.45;;;1.75;;
62580;SDS011;48640;48.770;9.148;2023-06-19T09:32:13;3.10;;;1.80;;
62580;SDS011;48640;48.770;9.148;2023-06-19T09:34:41;3.00;;;1.53;;
62580;SDS011;48640;48.770;9.148;2023-06-19T09:37:09;2.75;;;1.70;;
62580;SDS011;48640;48.770;9.148;2023-06-19T09:39:36;3.10;;;1.63;;
62580;SDS011;48640;48.770;9.148;2023-06-19T09:42:05;2.35;;;1.50;;
62580;SDS011;48640;48.770;9.148;2023-06-19T09:44:37;2.38;;;1.70;;
62580;SDS011;48640;48.770;9.148;2023-06-19T09:47:09;2.45;;;1.70;;
62580;SDS011;48640;48.770;9.148;2023-06-19T09:49:43;3.60;;;1.67;;
62580;SDS011;48640;48.770;9.148;2023-06-19T09:52:17;3.70;;;2.15;;
62580;SDS011;48640;48.770;9.148;2023-06-19T09:54:47;3.00;;;1.90;;
62580;SDS011;48640;48.770;9.148;2023-06-19T09:57:14;2.80;;;1.90;;
62580;SDS011;48640;48.770;9.148;2023-06-19T09:59:41;3.83;;;2.00;;
62580;SDS011;48640;48.770;9.148;2023-06-19T10:02:09;4.38;;;2.05;;
62580;SDS011;48640;48.770;9.148;2023-06-19T10:04:43;4.13;;;1.92;;
62580;SDS011;48640;48.770;9.148;2023-06-19T10:07:15;5.10;;;2.25;;
62580;SDS011;48640;48.770;9.148;2023-06-19T10:12:37;2.95;;;2.10;;
62580;SDS011;48640;48.770;9.148;2023-06-19T10:15:09;4.43;;;2.70;;
62580;SDS011;48640;48.770;9.148;2023-06-19T10:17:45;3.05;;;1.98;;
62580;SDS011;48640;48.770;9.148;2023-06-19T10:20:20;2.70;;;2.10;;
62580;SDS011;48640;48.770;9.148;2023-06-19T10:23:01;3.55;;;2.33;;
62580;SDS011;48640;48.770;9.148;2023-06-19T10:25:30;4.25;;;2.20;;
62580;SDS011;48640;48.770;9.148;2023-06-19T10:27:58;3.15;;;2.17;;
62580;SDS011;48640;48.770;9.148;2023-06-19T10:30:25;3.30;;;2.30;;
62580;SDS011;48640;48.770;9.148;2023-06-19T10:32:53;7.97;;;2.40;;
62580;SDS011;48640;48.770;9.148;2023-06-19T10:35:19;2.90;;;2.45;;
62580;SDS011;48640;48.770;9.148;2023-06-19T10:37:50;5.38;;;2.45;;
62580;SDS011;48640;48.770;9.148;2023-06-19T10:40:18;3.97;;;2.55;;
62580;SDS011;48640;48.770;9.148;2023-06-19T10:42:45;3.40;;;2.38;;
62580;SDS011;48640;48.770;9.148;2023-06-19T10:45:13;3.10;;;2.30;;
62580;SDS011;48640;48.770;9.148;2023-06-19T10:47:42;3.50;;;2.47;;
62580;SDS011;48640;48.770;9.148;2023-06-19T10:50:09;3.15;;;2.47;;
62580;SDS011;48640;48.770;9.148;2023-06-19T10:52:39;3.63;;;2.53;;
62580;SDS011;48640;48.770;9.148;2023-06-19T10:55:07;4.10;;;2.30;;
62580;SDS011;48640;48.770;9.148;2023-06-19T10:57:36;2.93;;;2.30;;
62580;SDS011;48640;48.770;9.148;2023-06-19T11:02:36;3.95;;;2.38;;
62580;SDS011;48640;48.770;9.148;2023-06-19T11:05:04;4.32;;;2.25;;
62580;SDS011;48640;48.770;9.148;2023-06-19T11:07:32;3.75;;;2.45;;
62580;SDS011;48640;48.770;9.148;2023-06-19T11:09:59;4.07;;;3.08;;
62580;SDS011;48640;48.770;9.148;2023-06-19T11:12:26;3.15;;;2.53;;
62580;SDS011;48640;48.770;9.148;2023-06-19T11:14:54;4.78;;;3.10;;
62580;SDS011;48640;48.770;9.148;2023-06-19T11:17:21;4.18;;;2.50;;
62580;SDS011;48640;48.770;9.148;2023-06-19T11:19:49;2.78;;;2.10;;
62580;SDS011;48640;48.770;9.148;2023-06-19T11:22:16;4.30;;;2.65;;
62580;SDS011;48640;48.770;9.148;2023-06-19T11:24:43;3.00;;;2.42;;
62580;SDS011;48640;48.770;9.148;2023-06-19T11:27:17;5.95;;;2.45;;
62580;SDS011;48640;48.770;9.148;2023-06-19T11:29:54;4.68;;;2.05;;
62580;SDS011;48640;48.770;9.148;2023-06-19T11:32:23;3.45;;;2.60;;
62580;SDS011;48640;48.770;9.148;2023-06-19T11:34:56;4.18;;;2.65;;
62580;SDS011;48640;48.770;9.148;2023-06-19T11:37:23;4.50;;;2.40;;
62580;SDS011;48640;48.770;9.148;2023-06-19T11:39:50;3.13;;;2.42;;
62580;SDS011;48640;48.770;9.148;2023-06-19T11:42:17;4.68;;;2.83;;
62580;SDS011;48640;48.770;9.148;2023-06-19T11:44:53;3.90;;;2.50;;
62580;SDS011;48640;48.770;9.148;2023-06-19T11:47:22;3.60;;;2.50;;
62580;SDS011;48640;48.770;9.148;2023-06-19T11:49:49;3.28;;;2.20;;
62580;SDS011;48640;48.770;9.148;2023-06-19T11:52:17;5.43;;;2.58;;
62580;SDS011;48640;48.770;9.148;2023-06-19T11:54:43;3.08;;;2.40;;
62580;SDS011;48640;48.770;9.148;2023-06-19T11:57:10;3.55;;;2.30;;
62580;SDS011;48640;48.770;9.148;2023-06-19T11:59:38;2.70;;;2.20;;
62580;SDS011;48640;48.770;9.148;2023-06-19T12:02:06;3.63;;;2.30;;
62580;SDS011;48640;48.770;9.148;2023-06-19T12:04:34;4.32;;;2.42;;
62580;SDS011;48640;48.770;9.148;2023-06-19T12:07:01;3.88;;;2.72;;
62580;SDS011;48640;48.770;9.148;2023-06-19T12:09:29;5.93;;;2.90;;
62580;SDS011;48640;48.770;9.148;2023-06-19T12:11:56;4.53;;;2.70;;
62580;SDS011;48640;48.770;9.148;2023-06-19T12:14:23;4.05;;;2.40;;
62580;SDS011;48640;48.770;9.148;2023-06-19T12:16:51;4.13;;;2.85;;
62580;SDS011;48640;48.770;9.148;2023-06-19T12:19:19;5.97;;;3.30;;
62580;SDS011;48640;48.770;9.148;2023-06-19T12:21:46;4.87;;;2.67;;
62580;SDS011;48640;48.770;9.148;2023-06-19T12:24:13;6.55;;;3.05;;
62580;SDS011;48640;48.770;9.148;2023-06-19T12:26:40;3.60;;;2.45;;
62580;SDS011;48640;48.770;9.148;2023-06-19T12:29:06;3.95;;;2.60;;
62580;SDS011;48640;48.770;9.148;2023-06-19T12:31:33;4.85;;;2.45;;
62580;SDS011;48640;48.770;9.148;2023-06-19T12:34:01;3.58;;;2.47;;
62580;SDS011;48640;48.770;9.148;2023-06-19T12:36:29;4.20;;;2.50;;
62580;SDS011;48640;48.770;9.148;2023-06-19T12:38:58;3.53;;;2.53;;
62580;SDS011;48640;48.770;9.148;2023-06-19T12:41:25;4.85;;;2.80;;
62580;SDS011;48640;48.770;9.148;2023-06-19T12:43:52;6.75;;;3.40;;
62580;SDS011;48640;48.770;9.148;2023-06-19T12:46:18;3.85;;;3.10;;
62580;SDS011;48640;48.770;9.148;2023-06-19T12:48:46;5.85;;;2.88;;
62580;SDS011;48640;48.770;9.148;2023-06-19T12:51:15;4.05;;;2.97;;
62580;SDS011;48640;48.770;9.148;2023-06-19T12:53:44;3.05;;;2.22;;
62580;SDS011;48640;48.770;9.148;2023-06-19T12:56:11;3.60;;;2.80;;
62580;SDS011;48640;48.770;9.148;2023-06-19T12:58:37;6.97;;;3.17;;
62580;SDS011;48640;48.770;9.148;2023-06-19T13:01:04;6.80;;;3.20;;
62580;SDS011;48640;48.770;9.148;2023-06-19T13:03:31;5.10;;;2.65;;
62580;SDS011;48640;48.770;9.148;2023-06-19T13:05:57;5.93;;;2.97;;
62580;SDS011;48640;48.770;9.148;2023-06-19T13:08:24;3.58;;;2.92;;
62580;SDS011;48640;48.770;9.148;2023-06-19T13:10:52;3.33;;;2.60;;
62580;SDS011;48640;48.770;9.148;2023-06-19T13:13:19;4.45;;;2.92;;
62580;SDS011;48640;48.770;9.148;2023-06-19T13:15:46;4.65;;;3.10;;
62580;SDS011;48640;48.770;9.148;2023-06-19T13:18:13;6.15;;;3.05;;
62580;SDS011;48640;48.770;9.148;2023-06-19T13:20:39;4.30;;;2.83;;
62580;SDS011;48640;48.770;9.148;2023-06-19T13:23:06;5.65;;;2.95;;
62580;SDS011;48640;48.770;9.148;2023-06-19T13:25:33;3.83;;;2.78;;
62580;SDS011;48640;48.770;9.148;2023-06-19T13:28:01;7.30;;;2.97;;
62580;SDS011;48640;48.770;9.148;2023-06-19T13:30:28;5.00;;;2.75;;
62580;SDS011;48640;48.770;9.148;2023-06-19T13:32:55;3.58;;;2.78;;
62580;SDS011;48640;48.770;9.148;2023-06-19T13:35:22;3.53;;;2.47;;
62580;SDS011;48640;48.770;9.148;2023-06-19T13:37:48;4.95;;;3.28;;
62580;SDS011;48640;48.770;9.148;2023-06-19T13:40:15;3.40;;;2.50;;
62580;SDS011;48640;48.770;9.148;2023-06-19T13:42:42;3.20;;;2.42;;
62580;SDS011;48640;48.770;9.148;2023-06-19T13:45:10;3.85;;;2.90;;
62580;SDS011;48640;48.770;9.148;2023-06-19T13:47:37;4.57;;;2.75;;
62580;SDS011;48640;48.770;9.148;2023-06-19T13:50:04;4.70;;;3.25;;
62580;SDS011;48640;48.770;9.148;2023-06-19T13:52:32;4.05;;;2.70;;
62580;SDS011;48640;48.770;9.148;2023-06-19T13:54:59;4.85;;;2.80;;
62580;SDS011;48640;48.770;9.148;2023-06-19T13:57:27;3.45;;;2.60;;
62580;SDS011;48640;48.770;9.148;2023-06-19T13:59:54;3.25;;;2.60;;
62580;SDS011;48640;48.770;9.148;2023-06-19T14:02:22;3.30;;;2.55;;
62580;SDS011;48640;48.770;9.148;2023-06-19T14:04:49;3.47;;;2.78;;
62580;SDS011;48640;48.770;9.148;2023-06-19T14:07:15;5.28;;;3.92;;
62580;SDS011;48640;48.770;9.148;2023-06-19T14:09:43;3.83;;;2.78;;
62580;SDS011;48640;48.770;9.148;2023-06-19T14:12:10;3.85;;;2.35;;
62580;SDS011;48640;48.770;9.148;2023-06-19T14:14:37;5.20;;;2.50;;
62580;SDS011;48640;48.770;9.148;2023-06-19T14:17:04;3.22;;;2.45;;
62580;SDS011;48640;48.770;9.148;2023-06-19T14:19:32;3.10;;;2.25;;
62580;SDS011;48640;48.770;9.148;2023-06-19T14:21:59;4.03;;;2.90;;
62580;SDS011;48640;48.770;9.148;2023-06-19T14:24:27;3.85;;;2.70;;
62580;SDS011;48640;48.770;9.148;2023-06-19T14:26:53;4.05;;;2.47;;
62580;SDS011;48640;48.770;9.148;2023-06-19T14:29:20;4.20;;;2.42;;
62580;SDS011;48640;48.770;9.148;2023-06-19T14:31:47;3.85;;;2.90;;
62580;SDS011;48640;48.770;9.148;2023-06-19T14:34:14;4.20;;;2.55;;
62580;SDS011;48640;48.770;9.148;2023-06-19T14:36:42;3.85;;;2.97;;
62580;SDS011;48640;48.770;9.148;2023-06-19T14:39:08;4.13;;;2.20;;
62580;SDS011;48640;48.770;9.148;2023-06-19T14:41:36;3.03;;;2.35;;
62580;SDS011;48640;48.770;9.148;2023-06-19T14:44:03;3.45;;;2.42;;
62580;SDS011;48640;48.770;9.148;2023-06-19T14:46:31;3.40;;;2.75;;
62580;SDS011;48640;48.770;9.148;2023-06-19T14:48:58;3.00;;;2.50;;
62580;SDS011;48640;48.770;9.148;2023-06-19T14:51:26;4.50;;;2.35;;
62580;SDS011;48640;48.770;9.148;2023-06-19T14:53:54;3.25;;;2.53;;
62580;SDS011;48640;48.770;9.148;2023-06-19T14:56:21;4.35;;;2.53;;
62580;SDS011;48640;48.770;9.148;2023-06-19T14:58:48;5.22;;;3.15;;
62580;SDS011;48640;48.770;9.148;2023-06-19T15:01:15;3.63;;;2.33;;